Time;durP1;ratioP1;P1;durP2;ratioP2;P2;SDS_P1;SDS_P2;PMS_P1;PMS_P2;Temp;Humidity;BMP_temperature;BMP_pressure;BME280_temperature;BME280_humidity;BME280_pressure;Samples;Min_cycle;Max_cycle;Signal;HPM_P1;HPM_P2
2022/11/28 00:00:01;;;;;;;15.80;2.33;;;22.70;31.00;;;;;;5019810;28;20077;-66
2022/11/28 00:02:28;;;;;;;13.25;2.33;;;22.70;30.90;;;;;;5019299;28;20541;-66
2022/11/28 00:04:54;;;;;;;15.00;2.50;;;22.70;31.30;;;;;;5018838;28;20550;-65
2022/11/28 00:07:20;;;;;;;11.40;2.47;;;22.50;31.60;;;;;;5022536;28;20110;-68
2022/11/28 00:09:47;;;;;;;10.30;2.53;;;22.50;32.20;;;;;;5016037;28;20077;-67
2022/11/28 00:12:13;;;;;;;38.15;22.48;;;22.30;32.90;;;;;;5004755;28;20078;-71
2022/11/28 00:14:40;;;;;;;35.78;20.02;;;22.10;33.00;;;;;;5021098;28;20074;-66
2022/11/28 00:17:06;;;;;;;33.63;20.65;;;22.00;33.30;;;;;;5021125;28;20069;-68
2022/11/28 00:19:33;;;;;;;35.08;16.50;;;21.80;33.20;;;;;;5021778;28;20090;-66
2022/11/28 00:21:59;;;;;;;40.55;21.63;;;21.70;33.30;;;;;;5023777;28;20062;-66
2022/11/28 00:24:25;;;;;;;12.10;2.88;;;21.50;33.40;;;;;;5018663;28;20097;-66
2022/11/28 00:26:52;;;;;;;15.38;3.65;;;21.40;33.80;;;;;;5021794;28;20475;-70
2022/11/28 00:29:18;;;;;;;18.40;3.53;;;21.20;34.10;;;;;;5022080;28;20478;-67
2022/11/28 00:31:45;;;;;;;15.98;3.00;;;21.10;34.50;;;;;;5021611;28;20090;-67
2022/11/28 00:34:13;;;;;;;18.77;3.70;;;20.90;34.70;;;;;;5021448;28;20124;-70
2022/11/28 00:36:39;;;;;;;26.67;4.18;;;20.80;35.30;;;;;;5019049;28;20547;-67
2022/11/28 00:39:06;;;;;;;21.27;5.40;;;20.60;35.90;;;;;;5024633;28;20152;-68
2022/11/28 00:41:34;;;;;;;25.92;11.80;;;20.50;36.30;;;;;;5020141;28;20090;-67
2022/11/28 00:44:01;;;;;;;16.92;5.22;;;20.40;36.90;;;;;;5020091;28;20710;-69
2022/11/28 00:46:29;;;;;;;28.00;5.78;;;20.20;37.80;;;;;;5022992;28;20096;-66
2022/11/28 00:48:57;;;;;;;15.10;5.78;;;20.10;38.00;;;;;;5014386;28;20154;-69
2022/11/28 00:51:28;;;;;;;25.13;5.07;;;20.00;38.60;;;;;;5022432;28;20094;-69
2022/11/28 00:53:58;;;;;;;23.13;5.03;;;19.80;38.30;;;;;;5022949;28;20102;-67
2022/11/28 00:56:31;;;;;;;16.38;4.43;;;19.70;38.50;;;;;;5017386;28;20078;-68
2022/11/28 00:58:58;;;;;;;21.83;4.38;;;19.50;38.90;;;;;;5023339;28;20081;-67
2022/11/28 01:01:34;;;;;;;28.77;4.40;;;19.40;39.10;;;;;;5018208;28;20077;-66
2022/11/28 01:04:03;;;;;;;20.10;3.75;;;19.30;39.30;;;;;;5019061;28;20066;-65
2022/11/28 01:06:32;;;;;;;23.80;4.65;;;19.20;39.80;;;;;;5000188;28;20130;-64
2022/11/28 01:09:01;;;;;;;24.65;5.13;;;19.10;39.30;;;;;;5011780;28;20162;-67
2022/11/28 01:11:28;;;;;;;14.68;4.05;;;19.00;39.70;;;;;;5013845;28;20094;-67
2022/11/28 01:13:57;;;;;;;19.40;5.90;;;18.90;40.10;;;;;;5017952;28;20066;-66
2022/11/28 01:16:23;;;;;;;26.10;5.93;;;18.70;39.90;;;;;;5015506;28;20085;-63
2022/11/28 01:18:50;;;;;;;25.35;5.47;;;18.70;40.50;;;;;;5012122;28;20074;-65
2022/11/28 01:21:16;;;;;;;30.80;5.90;;;18.60;40.60;;;;;;5022893;28;20074;-66
2022/11/28 01:23:43;;;;;;;29.02;5.22;;;18.50;41.50;;;;;;5017692;28;20102;-65
2022/11/28 01:26:15;;;;;;;27.20;5.68;;;18.50;41.80;;;;;;4999543;28;20078;-67
2022/11/28 01:28:41;;;;;;;30.25;5.90;;;18.40;41.80;;;;;;5018721;28;20442;-67
2022/11/28 01:31:09;;;;;;;29.67;5.63;;;18.30;42.40;;;;;;5021772;28;20102;-63
2022/11/28 01:33:36;;;;;;;36.50;6.13;;;18.20;43.00;;;;;;5015222;28;20081;-63
2022/11/28 01:36:03;;;;;;;77.60;8.45;;;18.10;43.20;;;;;;5017029;28;20462;-63
2022/11/28 01:38:29;;;;;;;62.53;8.90;;;18.10;42.90;;;;;;5013628;28;20067;-65
2022/11/28 01:40:56;;;;;;;55.22;8.20;;;18.00;43.20;;;;;;5007980;28;20482;-66
2022/11/28 01:43:24;;;;;;;40.60;7.60;;;17.90;42.90;;;;;;5009273;28;20074;-65
2022/11/28 01:45:51;;;;;;;46.63;8.30;;;17.80;43.10;;;;;;5009312;28;20082;-67
2022/11/28 01:48:25;;;;;;;52.85;8.60;;;17.80;43.10;;;;;;5009858;28;20563;-65
2022/11/28 01:50:57;;;;;;;237.07;19.38;;;17.60;43.20;;;;;;5019789;28;20098;-67
2022/11/28 01:53:28;;;;;;;100.68;12.57;;;17.60;43.80;;;;;;5017361;28;20094;-64
2022/11/28 01:56:08;;;;;;;64.63;10.40;;;17.50;44.10;;;;;;5013170;28;20113;-67
2022/11/28 01:58:39;;;;;;;54.50;11.93;;;17.50;44.30;;;;;;5020775;28;20066;-65
2022/11/28 02:01:06;;;;;;;49.03;10.70;;;17.40;44.00;;;;;;5010957;28;20074;-67
2022/11/28 02:03:47;;;;;;;51.97;10.63;;;17.30;43.90;;;;;;5020971;28;20637;-66
2022/11/28 02:06:18;;;;;;;64.85;11.48;;;17.30;44.20;;;;;;5019417;28;20685;-66
2022/11/28 02:08:45;;;;;;;59.30;10.85;;;17.20;44.60;;;;;;5020995;28;20074;-65
2022/11/28 02:11:38;;;;;;;60.47;12.60;;;17.20;45.20;;;;;;5017669;28;20122;-65
2022/11/28 02:14:29;;;;;;;56.17;13.75;;;17.10;45.10;;;;;;5020472;28;20071;-65
2022/11/28 02:17:30;;;;;;;64.15;14.25;;;17.00;45.10;;;;;;5017643;28;20588;-65
2022/11/28 02:20:21;;;;;;;53.33;13.73;;;17.00;45.70;;;;;;4978148;28;20086;-64
2022/11/28 02:23:12;;;;;;;35.13;13.05;;;16.90;46.70;;;;;;5023724;28;20070;-66
2022/11/28 02:26:21;;;;;;;58.33;16.23;;;16.90;46.90;;;;;;5018474;28;20185;-67
2022/11/28 02:28:56;;;;;;;49.13;16.15;;;16.70;46.40;;;;;;5021403;28;20085;-65
2022/11/28 02:31:53;;;;;;;62.78;17.52;;;16.70;47.20;;;;;;5014819;28;20104;-65
2022/11/28 02:34:44;;;;;;;53.45;18.13;;;16.70;47.00;;;;;;5020758;28;20074;-65
2022/11/28 02:37:45;;;;;;;64.90;16.83;;;16.60;47.90;;;;;;5019630;28;20201;-67
2022/11/28 02:40:25;;;;;;;62.67;18.55;;;16.60;47.40;;;;;;5023986;28;20077;-63
2022/11/28 02:43:03;;;;;;;57.47;17.17;;;16.50;47.70;;;;;;5018805;28;20078;-64
2022/11/28 02:45:53;;;;;;;49.97;15.95;;;16.50;47.80;;;;;;5021363;28;20078;-65
2022/11/28 02:48:50;;;;;;;65.22;18.85;;;16.40;48.10;;;;;;5021126;28;20531;-65
2022/11/28 02:51:31;;;;;;;62.28;17.48;;;16.30;48.70;;;;;;5022225;28;20178;-65
2022/11/28 02:54:01;;;;;;;61.85;17.58;;;16.20;49.30;;;;;;5018657;28;20075;-65
2022/11/28 02:56:27;;;;;;;53.35;16.70;;;16.20;49.50;;;;;;5017507;28;20120;-65
2022/11/28 02:58:54;;;;;;;72.60;19.73;;;16.20;50.00;;;;;;5021050;28;20132;-65
2022/11/28 03:01:33;;;;;;;67.10;21.13;;;16.20;50.00;;;;;;5022746;28;20081;-65
2022/11/28 03:04:10;;;;;;;92.35;25.90;;;16.10;49.60;;;;;;5017885;28;20136;-65
2022/11/28 03:06:58;;;;;;;90.53;27.00;;;16.20;50.40;;;;;;5023572;28;20179;-64
2022/11/28 03:09:31;;;;;;;92.65;26.58;;;16.10;50.30;;;;;;5024646;28;20089;-66
2022/11/28 03:12:31;;;;;;;96.03;29.88;;;16.10;50.30;;;;;;5015465;28;20214;-65
2022/11/28 03:15:02;;;;;;;135.93;51.90;;;16.00;50.20;;;;;;4996094;28;20074;-64
2022/11/28 03:17:37;;;;;;;128.98;52.80;;;15.90;50.20;;;;;;5023858;28;20069;-64
2022/11/28 03:20:16;;;;;;;127.65;50.65;;;15.90;50.40;;;;;;5022210;28;20090;-66
2022/11/28 03:22:54;;;;;;;140.65;48.83;;;15.90;50.80;;;;;;5023323;28;20124;-64
2022/11/28 03:25:27;;;;;;;125.75;44.67;;;15.90;50.90;;;;;;5017395;28;20161;-64
2022/11/28 03:27:57;;;;;;;134.27;45.10;;;15.80;51.20;;;;;;5018703;28;20067;-64
2022/11/28 03:30:44;;;;;;;116.50;44.30;;;15.80;51.40;;;;;;5017232;28;20086;-65
2022/11/28 03:33:13;;;;;;;141.65;49.25;;;15.80;50.90;;;;;;5019432;28;20470;-64
2022/11/28 03:35:46;;;;;;;180.43;64.82;;;15.70;50.50;;;;;;5023183;28;20083;-61
2022/11/28 03:38:24;;;;;;;156.40;63.08;;;15.70;50.70;;;;;;5020607;28;20120;-65
2022/11/28 03:40:55;;;;;;;178.73;65.15;;;15.70;50.60;;;;;;5020437;28;20077;-65
2022/11/28 03:43:35;;;;;;;169.90;69.78;;;15.70;51.20;;;;;;5023338;28;20108;-63
2022/11/28 03:46:07;;;;;;;178.82;71.38;;;15.70;51.60;;;;;;5022225;28;20074;-66
2022/11/28 03:48:44;;;;;;;182.88;76.75;;;15.70;51.60;;;;;;5018252;28;20078;-67
2022/11/28 03:51:23;;;;;;;178.77;71.03;;;15.70;51.50;;;;;;5022998;28;20089;-65
2022/11/28 03:54:13;;;;;;;157.77;56.47;;;15.70;51.90;;;;;;5023405;28;20089;-66
2022/11/28 03:56:50;;;;;;;156.98;58.10;;;15.60;51.80;;;;;;5022695;28;20573;-66
2022/11/28 03:59:23;;;;;;;176.98;59.28;;;15.60;51.90;;;;;;5018983;28;20157;-65
2022/11/28 04:01:55;;;;;;;172.63;61.83;;;15.60;51.80;;;;;;5024239;28;20088;-68
2022/11/28 04:04:40;;;;;;;179.85;68.00;;;15.50;52.20;;;;;;5017137;28;20490;-65
2022/11/28 04:07:46;;;;;;;184.05;68.80;;;15.50;52.40;;;;;;5020398;28;20563;-67
2022/11/28 04:10:34;;;;;;;183.95;69.85;;;15.40;52.00;;;;;;5006140;28;20139;-66
2022/11/28 04:13:05;;;;;;;188.80;71.85;;;15.40;52.30;;;;;;5017161;28;20467;-65
2022/11/28 04:15:47;;;;;;;188.07;69.32;;;15.40;52.10;;;;;;5013535;28;20070;-64
2022/11/28 04:18:59;;;;;;;180.07;69.55;;;15.40;52.60;;;;;;5018537;28;20074;-66
2022/11/28 04:21:33;;;;;;;172.13;63.85;;;15.30;52.50;;;;;;5015071;28;20498;-66
2022/11/28 04:24:06;;;;;;;175.48;59.13;;;15.30;53.00;;;;;;5013324;28;20534;-65
2022/11/28 04:26:55;;;;;;;177.73;60.17;;;15.30;52.90;;;;;;5020723;28;20094;-66
2022/11/28 04:29:23;;;;;;;174.20;58.95;;;15.20;52.10;;;;;;5017724;28;20078;-67
2022/11/28 04:31:53;;;;;;;158.55;57.05;;;15.20;51.60;;;;;;5021149;28;20551;-65
2022/11/28 04:34:22;;;;;;;167.10;56.58;;;15.10;51.70;;;;;;5018448;28;20140;-66
2022/11/28 04:36:49;;;;;;;166.43;55.90;;;15.10;52.00;;;;;;5018428;28;20169;-67
2022/11/28 04:39:18;;;;;;;151.27;58.63;;;15.10;51.70;;;;;;5023404;28;20081;-65
2022/11/28 04:41:52;;;;;;;156.90;57.45;;;15.10;52.30;;;;;;5024805;28;20086;-66
2022/11/28 04:44:31;;;;;;;143.07;58.72;;;15.10;52.00;;;;;;5015599;28;20144;-66
2022/11/28 04:46:58;;;;;;;167.75;58.03;;;15.00;51.80;;;;;;5019433;28;20073;-64
2022/11/28 04:49:27;;;;;;;175.55;59.58;;;15.00;52.00;;;;;;5018636;28;20076;-67
2022/11/28 04:52:34;;;;;;;155.52;57.25;;;15.00;51.90;;;;;;5014687;28;20078;-66
2022/11/28 04:55:03;;;;;;;185.30;60.55;;;15.00;52.00;;;;;;5016740;28;20110;-65
2022/11/28 04:57:41;;;;;;;180.45;55.33;;;14.90;51.90;;;;;;5017322;28;20066;-65
2022/11/28 05:00:17;;;;;;;154.73;54.67;;;14.90;51.90;;;;;;5014643;28;20081;-66
2022/11/28 05:02:45;;;;;;;132.55;51.55;;;14.90;52.10;;;;;;5017702;28;20483;-67
2022/11/28 05:05:17;;;;;;;157.85;53.35;;;14.80;53.00;;;;;;5016097;28;20090;-67
2022/11/28 05:07:43;;;;;;;168.32;56.33;;;14.80;52.90;;;;;;5017063;28;20106;-68
2022/11/28 05:10:10;;;;;;;;;;;14.80;53.50;;;;;;5023590;28;20125;-70
2022/11/28 05:12:37;;;;;;;166.98;58.15;;;14.80;53.10;;;;;;5012837;28;19966;-68
2022/11/28 05:15:05;;;;;;;169.25;57.67;;;14.70;53.00;;;;;;4997508;28;20078;-68
2022/11/28 05:17:31;;;;;;;189.93;62.72;;;14.70;53.10;;;;;;5014403;28;20088;-67
2022/11/28 05:19:57;;;;;;;163.65;61.33;;;14.60;52.50;;;;;;5021150;28;20079;-66
2022/11/28 05:22:23;;;;;;;;;;;14.60;52.20;;;;;;5020387;28;20088;-66
2022/11/28 05:24:50;;;;;;;199.65;65.63;;;14.60;52.70;;;;;;5012975;28;20001;-67
2022/11/28 05:27:16;;;;;;;;;;;14.40;52.10;;;;;;5016417;28;20527;-66
2022/11/28 05:29:45;;;;;;;185.18;66.22;;;14.50;52.40;;;;;;5013030;28;20015;-66
2022/11/28 05:32:12;;;;;;;185.90;64.22;;;14.50;53.00;;;;;;5015813;28;20101;-67
2022/11/28 05:34:39;;;;;;;181.45;65.63;;;14.50;53.20;;;;;;5021881;28;20081;-66
2022/11/28 05:37:05;;;;;;;174.23;63.67;;;14.40;53.30;;;;;;5023246;28;20604;-66
2022/11/28 05:39:31;;;;;;;;;;;14.30;53.30;;;;;;5023290;28;20588;-65
2022/11/28 05:41:58;;;;;;;183.23;62.13;;;14.40;54.30;;;;;;5021508;28;20056;-67
2022/11/28 05:44:25;;;;;;;172.65;60.45;;;14.30;53.80;;;;;;5025435;28;20075;-67
2022/11/28 05:46:51;;;;;;;178.80;61.53;;;14.30;53.70;;;;;;5027162;28;20527;-66
2022/11/28 05:49:20;;;;;;;180.85;56.25;;;14.30;54.10;;;;;;5024236;28;20078;-68
2022/11/28 05:51:47;;;;;;;150.35;55.38;;;14.20;54.30;;;;;;5024433;28;20155;-66
2022/11/28 05:54:15;;;;;;;176.73;59.15;;;14.20;54.80;;;;;;5021637;28;20109;-68
2022/11/28 05:56:41;;;;;;;179.07;57.78;;;14.20;54.40;;;;;;5028751;28;20093;-67
2022/11/28 05:59:07;;;;;;;;;;;14.10;54.00;;;;;;5021593;28;20487;-66
2022/11/28 06:01:33;;;;;;;162.90;54.35;;;14.10;54.00;;;;;;5020825;28;20008;-67
2022/11/28 06:04:00;;;;;;;;;;;14.10;53.90;;;;;;5022514;28;20086;-66
2022/11/28 06:06:32;;;;;;;153.35;53.05;;;14.10;54.00;;;;;;5022140;28;20009;-66
2022/11/28 06:08:59;;;;;;;157.60;57.40;;;14.00;54.20;;;;;;5020775;28;20151;-66
2022/11/28 06:11:28;;;;;;;161.93;54.60;;;14.00;54.50;;;;;;5022225;28;20185;-66
2022/11/28 06:13:54;;;;;;;148.82;53.30;;;14.00;54.10;;;;;;5020578;28;20090;-65
2022/11/28 06:16:28;;;;;;;;;;;14.00;54.00;;;;;;5019411;28;20074;-65
2022/11/28 06:18:59;;;;;;;199.35;59.55;;;14.00;54.10;;;;;;5020738;28;20423;-66
2022/11/28 06:21:26;;;;;;;164.63;54.42;;;14.00;53.50;;;;;;5022479;28;20098;-66
2022/11/28 06:23:53;;;;;;;176.00;57.22;;;14.00;54.10;;;;;;5024069;28;20078;-65
2022/11/28 06:26:21;;;;;;;172.63;56.75;;;14.00;54.20;;;;;;5005751;28;20081;-67
2022/11/28 06:28:48;;;;;;;177.05;57.10;;;14.00;54.40;;;;;;5025938;28;20151;-65
2022/11/28 06:31:17;;;;;;;181.68;59.42;;;14.00;54.40;;;;;;5020210;28;20446;-65
2022/11/28 06:33:44;;;;;;;195.73;60.25;;;14.00;54.50;;;;;;5020212;28;20205;-65
2022/11/28 06:36:12;;;;;;;188.48;60.90;;;14.00;54.50;;;;;;5020502;28;20102;-68
2022/11/28 06:38:38;;;;;;;194.38;65.35;;;14.00;54.50;;;;;;5018562;28;20124;-64
2022/11/28 06:41:07;;;;;;;190.60;63.40;;;14.00;54.80;;;;;;5017922;28;20070;-69
2022/11/28 06:43:34;;;;;;;176.73;60.17;;;13.90;55.20;;;;;;5018279;28;20204;-67
2022/11/28 06:46:01;;;;;;;188.82;63.58;;;13.90;55.70;;;;;;5017267;28;20070;-67
2022/11/28 06:48:27;;;;;;;198.35;68.22;;;13.90;55.50;;;;;;5026693;28;20070;-66
2022/11/28 06:51:01;;;;;;;224.40;76.95;;;13.90;54.60;;;;;;5018965;28;20090;-67
2022/11/28 06:53:27;;;;;;;210.93;85.28;;;13.90;54.60;;;;;;5019014;28;20596;-66
2022/11/28 06:55:53;;;;;;;;;;;13.90;54.20;;;;;;5027779;28;20094;-67
2022/11/28 06:58:19;;;;;;;228.13;95.78;;;13.90;54.80;;;;;;5023345;28;19958;-65
2022/11/28 07:00:46;;;;;;;230.93;97.25;;;13.80;55.20;;;;;;5027706;28;20601;-65
2022/11/28 07:03:12;;;;;;;;;;;13.80;54.90;;;;;;5020978;28;20074;-65
2022/11/28 07:05:38;;;;;;;214.45;84.07;;;13.80;54.90;;;;;;5021869;28;19978;-64
2022/11/28 07:08:05;;;;;;;206.77;77.13;;;13.80;54.80;;;;;;5019902;28;20215;-67
2022/11/28 07:10:32;;;;;;;213.43;80.97;;;13.80;55.30;;;;;;5015065;28;20094;-65
2022/11/28 07:12:59;;;;;;;191.45;58.97;;;13.80;55.20;;;;;;5018963;28;20462;-65
2022/11/28 07:15:26;;;;;;;197.60;60.85;;;13.80;55.10;;;;;;5019494;28;20070;-66
2022/11/28 07:17:53;;;;;;;168.57;58.30;;;13.70;54.80;;;;;;5022059;28;20094;-65
2022/11/28 07:20:20;;;;;;;180.23;56.38;;;13.80;54.10;;;;;;5022068;28;20082;-65
2022/11/28 07:22:49;;;;;;;184.80;58.03;;;13.80;54.30;;;;;;5021681;28;20084;-65
2022/11/28 07:25:15;;;;;;;184.05;53.25;;;13.80;54.30;;;;;;5017770;28;20148;-65
2022/11/28 07:27:42;;;;;;;;;;;13.90;55.00;;;;;;5024607;28;20085;-64
2022/11/28 07:30:09;;;;;;;173.70;57.25;;;13.80;54.60;;;;;;5024464;28;20048;-64
2022/11/28 07:32:39;;;;;;;189.70;55.00;;;13.80;55.20;;;;;;5021175;28;20490;-65
2022/11/28 07:35:07;;;;;;;154.20;49.22;;;13.80;54.40;;;;;;5023017;28;20116;-65
2022/11/28 07:37:34;;;;;;;194.63;55.08;;;13.80;54.20;;;;;;5022065;28;20549;-65
2022/11/28 07:40:00;;;;;;;164.05;51.33;;;13.80;54.30;;;;;;5023923;28;20094;-65
2022/11/28 07:42:26;;;;;;;;;;;13.70;55.10;;;;;;5005829;28;20070;-65
2022/11/28 07:44:53;;;;;;;147.77;49.03;;;13.80;55.00;;;;;;5021164;28;19957;-65
2022/11/28 07:47:19;;;;;;;;;;;13.80;55.10;;;;;;5024854;28;20082;-65
2022/11/28 07:49:45;;;;;;;154.93;41.60;;;13.80;54.70;;;;;;5023360;28;19966;-65
2022/11/28 07:52:11;;;;;;;;;;;13.60;54.70;;;;;;5023921;28;20090;-66
2022/11/28 07:54:37;;;;;;;107.07;34.42;;;13.60;54.40;;;;;;5015348;28;19965;-66
2022/11/28 07:57:04;;;;;;;117.80;32.92;;;13.60;54.90;;;;;;5025818;28;20523;-65
2022/11/28 07:59:30;;;;;;;;;;;13.50;54.60;;;;;;5020212;28;20582;-66
2022/11/28 08:01:56;;;;;;;105.22;31.85;;;13.60;54.10;;;;;;5019323;28;19954;-67
2022/11/28 08:04:25;;;;;;;109.55;30.70;;;13.60;54.20;;;;;;5021308;28;20125;-66
2022/11/28 08:06:51;;;;;;;;;;;13.60;55.20;;;;;;5021058;28;20113;-65
2022/11/28 08:09:18;;;;;;;99.88;28.58;;;13.60;55.00;;;;;;5018904;28;19989;-65
2022/11/28 08:11:44;;;;;;;106.03;28.33;;;13.60;54.80;;;;;;5018668;28;20103;-65
2022/11/28 08:14:11;;;;;;;;;;;13.60;55.10;;;;;;5027896;28;20528;-65
2022/11/28 08:16:40;;;;;;;76.72;23.70;;;13.40;54.40;;;;;;5020200;28;20402;-65
2022/11/28 08:19:06;;;;;;;84.43;25.77;;;13.30;55.10;;;;;;5023039;28;20120;-66
2022/11/28 08:21:33;;;;;;;;;;;13.10;54.70;;;;;;5021053;28;20090;-64
2022/11/28 08:24:01;;;;;;;80.63;21.77;;;13.20;53.70;;;;;;5012273;28;19954;-65
2022/11/28 08:26:29;;;;;;;74.28;22.02;;;13.20;53.50;;;;;;5026146;28;20161;-66
2022/11/28 08:28:56;;;;;;;74.70;22.63;;;13.30;53.50;;;;;;5020687;28;20558;-65
2022/11/28 08:31:28;;;;;;;74.50;23.60;;;13.30;53.30;;;;;;5000985;28;20086;-65
2022/11/28 08:33:56;;;;;;;89.85;26.30;;;13.30;53.50;;;;;;5016091;28;20547;-65
2022/11/28 08:36:22;;;;;;;80.00;26.02;;;13.30;52.60;;;;;;5017442;28;20075;-65
2022/11/28 08:38:49;;;;;;;80.65;24.40;;;13.10;52.30;;;;;;5012944;28;20141;-65
2022/11/28 08:41:19;;;;;;;80.10;23.77;;;13.20;52.10;;;;;;5023388;28;20094;-65
2022/11/28 08:43:47;;;;;;;88.03;24.38;;;13.20;52.10;;;;;;5021361;28;20101;-65
2022/11/28 08:46:17;;;;;;;81.57;24.92;;;13.20;51.90;;;;;;5020042;28;20072;-65
2022/11/28 08:48:44;;;;;;;91.18;24.20;;;13.20;52.50;;;;;;5022214;28;20517;-65
2022/11/28 08:51:15;;;;;;;94.30;27.15;;;13.20;52.60;;;;;;5017837;28;20082;-64
2022/11/28 08:53:42;;;;;;;84.07;25.63;;;13.20;53.00;;;;;;5019889;28;20176;-64
2022/11/28 08:56:09;;;;;;;95.47;28.70;;;13.20;52.50;;;;;;5020827;28;20622;-64
2022/11/28 08:58:36;;;;;;;87.65;27.92;;;13.20;51.80;;;;;;5017288;28;20069;-65
2022/11/28 09:01:03;;;;;;;82.35;28.23;;;13.30;52.10;;;;;;5017476;28;20540;-64
2022/11/28 09:03:29;;;;;;;84.68;25.70;;;13.30;51.90;;;;;;5019027;28;20132;-65
2022/11/28 09:05:59;;;;;;;;;;;13.30;51.10;;;;;;5019786;28;20136;-66
2022/11/28 09:08:25;;;;;;;94.53;29.25;;;13.20;51.80;;;;;;5022965;28;19983;-64
2022/11/28 09:10:51;;;;;;;;;;;13.20;52.00;;;;;;4999848;28;20102;-65
2022/11/28 09:13:18;;;;;;;87.00;28.55;;;13.30;52.20;;;;;;5021564;28;20048;-65
2022/11/28 09:15:46;;;;;;;71.82;25.67;;;13.30;52.10;;;;;;5019765;28;20505;-65
2022/11/28 09:18:13;;;;;;;75.78;28.05;;;13.20;52.10;;;;;;5016930;28;20086;-64
2022/11/28 09:20:41;;;;;;;82.38;27.50;;;13.10;53.00;;;;;;5015484;28;20079;-64
2022/11/28 09:23:08;;;;;;;84.55;28.92;;;13.10;53.20;;;;;;5020491;28;20077;-65
2022/11/28 09:25:36;;;;;;;87.80;28.10;;;13.00;53.70;;;;;;5018095;28;20082;-65
2022/11/28 09:28:03;;;;;;;83.93;27.95;;;13.00;53.60;;;;;;4980581;28;20524;-65
2022/11/28 09:30:29;;;;;;;;;;;13.10;53.70;;;;;;5015747;28;20144;-64
2022/11/28 09:32:55;;;;;;;88.30;27.27;;;13.00;54.20;;;;;;5020020;28;19977;-65
2022/11/28 09:35:21;;;;;;;;;;;12.90;54.40;;;;;;5024304;28;20075;-65
2022/11/28 09:37:48;;;;;;;98.47;29.42;;;12.80;54.30;;;;;;5019831;28;20342;-65
2022/11/28 09:40:16;;;;;;;;;;;12.70;54.50;;;;;;5016633;28;20153;-65
2022/11/28 09:42:43;;;;;;;100.80;28.55;;;12.70;54.70;;;;;;5021845;28;19966;-65
2022/11/28 09:45:21;;;;;;;90.63;29.70;;;12.80;54.80;;;;;;5020916;28;20087;-65
2022/11/28 09:48:05;;;;;;;83.97;29.05;;;12.80;54.60;;;;;;5023049;28;20546;-65
2022/11/28 09:50:34;;;;;;;85.00;29.02;;;12.80;54.70;;;;;;5017413;28;20544;-64
2022/11/28 09:53:09;;;;;;;76.35;28.45;;;12.90;55.30;;;;;;5019684;28;20141;-65
2022/11/28 09:55:38;;;;;;;100.40;31.70;;;12.90;54.80;;;;;;5019721;28;20102;-66
2022/11/28 09:58:22;;;;;;;90.60;30.88;;;12.70;54.50;;;;;;5016514;28;20118;-64
2022/11/28 10:01:03;;;;;;;102.35;31.50;;;12.80;55.00;;;;;;5016622;28;20078;-66
2022/11/28 10:04:19;;;;;;;87.85;28.80;;;12.90;54.90;;;;;;5020310;28;20555;-66
2022/11/28 10:07:18;;;;;;;96.93;30.52;;;12.80;55.40;;;;;;4956748;28;20116;-66
2022/11/28 10:10:05;;;;;;;97.53;47.13;;;12.80;55.80;;;;;;5016433;28;20117;-65
2022/11/28 10:12:46;;;;;;;;;;;12.90;55.40;;;;;;5018021;28;20095;-65
2022/11/28 10:15:56;;;;;;;88.13;30.70;;;12.90;55.30;;;;;;5018140;28;19966;-66
2022/11/28 10:18:46;;;;;;;101.80;30.00;;;12.70;55.60;;;;;;5017406;28;20074;-67
2022/11/28 10:21:38;;;;;;;92.60;29.60;;;12.80;55.80;;;;;;5011422;28;20121;-65
2022/11/28 10:24:13;;;;;;;89.80;29.48;;;12.80;56.00;;;;;;5023831;28;20531;-65
2022/11/28 10:26:46;;;;;;;100.82;31.80;;;12.80;56.80;;;;;;5001718;28;20124;-66
2022/11/28 10:29:21;;;;;;;82.82;29.42;;;12.70;56.80;;;;;;5022585;28;20532;-64
2022/11/28 10:31:51;;;;;;;85.60;28.60;;;12.80;56.70;;;;;;5020437;28;20160;-64
2022/11/28 10:34:44;;;;;;;80.45;28.50;;;12.90;56.90;;;;;;5023649;28;20143;-66
2022/11/28 10:37:31;;;;;;;84.63;27.20;;;12.90;56.50;;;;;;5013784;28;20536;-65
2022/11/28 10:40:30;;;;;;;78.50;26.52;;;12.90;56.00;;;;;;5028036;28;20070;-65
2022/11/28 10:43:05;;;;;;;82.78;28.25;;;12.90;56.00;;;;;;5020539;28;20483;-66
2022/11/28 10:45:31;;;;;;;88.32;27.20;;;12.90;55.40;;;;;;5022597;28;20196;-65
2022/11/28 10:48:06;;;;;;;;;;;12.90;54.70;;;;;;5021410;28;20086;-65
2022/11/28 10:51:05;;;;;;;79.63;24.92;;;13.00;54.20;;;;;;5020016;28;20075;-66
2022/11/28 10:54:01;;;;;;;83.35;27.15;;;12.80;54.40;;;;;;5024550;28;20127;-64
2022/11/28 10:57:03;;;;;;;73.25;25.92;;;12.80;53.90;;;;;;5020639;28;20077;-66
2022/11/28 10:59:29;;;;;;;83.28;29.35;;;12.80;54.70;;;;;;5021124;28;20108;-66
2022/11/28 11:01:57;;;;;;;76.80;29.08;;;12.70;54.60;;;;;;5025207;28;20078;-65
2022/11/28 11:04:26;;;;;;;71.35;27.75;;;12.80;55.10;;;;;;5023368;28;20145;-65
2022/11/28 11:07:19;;;;;;;83.25;28.02;;;12.80;55.10;;;;;;5021796;28;20196;-67
2022/11/28 11:09:46;;;;;;;78.22;26.63;;;12.50;55.10;;;;;;5023238;28;20152;-65
2022/11/28 11:12:31;;;;;;;83.57;28.85;;;12.60;55.50;;;;;;5022921;28;20230;-66
2022/11/28 11:14:57;;;;;;;80.63;25.92;;;12.70;55.70;;;;;;5017799;28;20524;-65
2022/11/28 11:17:36;;;;;;;89.03;28.08;;;12.60;56.00;;;;;;5018584;28;20128;-65
2022/11/28 11:20:26;;;;;;;69.25;27.02;;;12.60;56.20;;;;;;5021897;28;20078;-66
2022/11/28 11:23:01;;;;;;;83.47;27.27;;;12.40;56.20;;;;;;5025908;28;20157;-65
2022/11/28 11:25:31;;;;;;;90.15;28.73;;;12.40;56.00;;;;;;5023495;28;20156;-64
2022/11/28 11:28:01;;;;;;;79.97;26.58;;;12.30;56.40;;;;;;5020806;28;20081;-64
2022/11/28 11:30:41;;;;;;;94.60;27.92;;;12.40;56.50;;;;;;5018426;28;20071;-64
2022/11/28 11:33:16;;;;;;;94.43;27.40;;;12.50;56.60;;;;;;5023409;28;20173;-65
2022/11/28 11:35:46;;;;;;;85.53;26.92;;;12.50;56.70;;;;;;5023901;28;20077;-64
2022/11/28 11:38:29;;;;;;;89.05;28.67;;;12.50;56.60;;;;;;5016967;28;20075;-65
2022/11/28 11:40:55;;;;;;;82.40;28.27;;;12.40;56.60;;;;;;5016999;28;20163;-65
2022/11/28 11:43:30;;;;;;;86.82;29.05;;;12.40;56.00;;;;;;5022926;28;20478;-65
2022/11/28 11:46:11;;;;;;;88.40;30.63;;;12.40;56.00;;;;;;5018197;28;20570;-65
2022/11/28 11:48:40;;;;;;;102.32;29.83;;;12.40;55.90;;;;;;5021360;28;20085;-66
2022/11/28 11:51:30;;;;;;;86.93;30.25;;;12.30;56.30;;;;;;5023438;28;20586;-66
2022/11/28 11:54:16;;;;;;;92.97;30.08;;;12.40;57.10;;;;;;5024179;28;20073;-65
2022/11/28 11:56:46;;;;;;;101.95;34.15;;;12.20;56.90;;;;;;5021131;28;20432;-64
2022/11/28 11:59:27;;;;;;;98.30;32.60;;;12.30;56.70;;;;;;5028142;28;20152;-66
2022/11/28 12:02:02;;;;;;;119.60;42.40;;;12.30;56.10;;;;;;5023102;28;20455;-65
2022/11/28 12:04:43;;;;;;;157.10;54.30;;;12.30;55.50;;;;;;5021010;28;20097;-66
2022/11/28 12:07:24;;;;;;;161.55;53.95;;;12.20;54.80;;;;;;5022369;28;20102;-65
2022/11/28 12:09:52;;;;;;;181.35;55.60;;;12.20;54.30;;;;;;5020513;28;20073;-65
2022/11/28 12:12:27;;;;;;;172.45;54.00;;;12.30;53.90;;;;;;5020867;28;20177;-66
2022/11/28 12:14:54;;;;;;;198.48;64.95;;;12.20;53.50;;;;;;5017312;28;20083;-65
2022/11/28 12:17:27;;;;;;;200.57;64.43;;;12.20;53.50;;;;;;5021569;28;20071;-64
2022/11/28 12:20:17;;;;;;;179.98;61.33;;;12.20;53.60;;;;;;5019233;28;20070;-66
2022/11/28 12:23:11;;;;;;;199.93;59.90;;;12.20;53.80;;;;;;5023624;28;20066;-65
2022/11/28 12:25:46;;;;;;;178.18;60.10;;;12.20;54.20;;;;;;4998241;28;20115;-65
2022/11/28 12:28:56;;;;;;;194.45;61.25;;;12.10;54.80;;;;;;5019184;28;20089;-64
2022/11/28 12:31:50;;;;;;;182.82;59.80;;;12.10;55.20;;;;;;5019201;28;20089;-66
2022/11/28 12:34:40;;;;;;;183.98;58.75;;;12.10;55.60;;;;;;5022567;28;20158;-66
2022/11/28 12:37:33;;;;;;;177.63;57.47;;;12.10;55.40;;;;;;5022985;28;20543;-66
2022/11/28 12:40:23;;;;;;;183.60;57.33;;;12.10;55.50;;;;;;5017519;28;20079;-66
2022/11/28 12:43:02;;;;;;;169.57;58.13;;;12.10;55.50;;;;;;5019419;28;20089;-65
2022/11/28 12:45:36;;;;;;;185.57;57.65;;;12.10;55.90;;;;;;5016019;28;20070;-64
2022/11/28 12:48:19;;;;;;;198.73;58.75;;;12.10;55.80;;;;;;5022128;28;20084;-64
2022/11/28 12:51:10;;;;;;;215.40;64.15;;;12.00;55.80;;;;;;5021124;28;20091;-66
2022/11/28 12:53:51;;;;;;;194.15;64.28;;;11.90;54.80;;;;;;5006679;28;20633;-67
2022/11/28 12:56:54;;;;;;;217.93;67.35;;;11.90;54.70;;;;;;5021886;28;20100;-66
2022/11/28 12:59:51;;;;;;;199.68;66.32;;;11.80;54.60;;;;;;5022138;28;20095;-65
2022/11/28 13:02:50;;;;;;;208.50;68.13;;;11.90;54.60;;;;;;5015951;28;20486;-64